createdAt,value
2018-10-09T00:01:29.034Z,35.87
2018-10-09T00:03:57.801Z,34.03
2018-10-09T00:06:26.100Z,33.03
2018-10-09T00:08:55.221Z,32.10
2018-10-09T00:11:23.477Z,33.97
2018-10-09T00:13:51.765Z,33.23
2018-10-09T00:16:20.575Z,33.50
2018-10-09T00:18:48.918Z,32.70
2018-10-09T00:21:17.194Z,32.17
2018-10-09T00:23:45.521Z,35.43
2018-10-09T00:26:14.496Z,32.28
2018-10-09T00:28:42.722Z,33.90
2018-10-09T00:31:10.985Z,32.57
2018-10-09T00:33:39.296Z,32.57
2018-10-09T00:36:08.292Z,36.47
2018-10-09T00:38:37.017Z,32.47
2018-10-09T00:41:05.298Z,35.23
2018-10-09T00:43:33.582Z,32.60
2018-10-09T00:46:01.892Z,34.50
2018-10-09T00:48:30.191Z,32.43
2018-10-09T00:50:58.922Z,33.97
2018-10-09T00:53:27.743Z,33.17
2018-10-09T00:55:56.029Z,33.10
2018-10-09T00:58:24.317Z,31.73
2018-10-09T01:00:52.626Z,31.53
2018-10-09T01:03:22.154Z,32.63
2018-10-09T01:05:50.403Z,35.63
2018-10-09T01:08:18.754Z,31.43
2018-10-09T01:10:47.033Z,34.30
2018-10-09T01:13:15.303Z,32.53
2018-10-09T01:15:44.156Z,32.53
2018-10-09T01:18:12.424Z,33.87
2018-10-09T01:20:40.722Z,34.43
2018-10-09T01:23:09.022Z,32.37
2018-10-09T01:25:37.316Z,34.73
2018-10-09T01:28:06.025Z,32.13
2018-10-09T01:30:35.006Z,34.37
2018-10-09T01:33:03.638Z,33.57
2018-10-09T01:35:32.846Z,39.40
2018-10-09T01:38:01.204Z,34.07
2018-10-09T01:40:30.171Z,34.57
2018-10-09T01:42:58.482Z,33.70
2018-10-09T01:45:26.775Z,32.17
2018-10-09T01:47:55.116Z,31.50
2018-10-09T01:50:23.725Z,32.27
2018-10-09T01:52:52.574Z,33.53
2018-10-09T01:55:21.700Z,31.57
2018-10-09T01:57:50.005Z,32.10
2018-10-09T02:00:18.314Z,36.33
2018-10-09T02:02:47.247Z,32.37
2018-10-09T02:05:15.545Z,33.30
2018-10-09T02:07:44.573Z,30.83
2018-10-09T02:10:12.839Z,32.60
2018-10-09T02:12:41.090Z,31.40
2018-10-09T02:15:09.422Z,31.90
2018-10-09T02:17:38.190Z,31.87
2018-10-09T02:20:06.493Z,31.20
2018-10-09T02:22:34.791Z,32.03
2018-10-09T02:25:03.867Z,32.47
2018-10-09T02:27:32.626Z,35.20
2018-10-09T02:30:00.915Z,31.63
2018-10-09T02:32:29.167Z,33.03
2018-10-09T02:34:58.015Z,31.43
2018-10-09T02:37:26.319Z,34.10
2018-10-09T02:39:54.672Z,34.90
2018-10-09T02:42:22.980Z,34.43
2018-10-09T02:44:51.264Z,36.10
2018-10-09T02:47:19.601Z,36.83
2018-10-09T02:49:48.994Z,38.33
2018-10-09T02:52:17.478Z,37.83
2018-10-09T02:54:45.773Z,35.03
2018-10-09T02:57:14.056Z,33.50
2018-10-09T02:59:42.376Z,34.27
2018-10-09T03:02:11.565Z,34.87
2018-10-09T03:04:39.846Z,35.40
2018-10-09T03:07:08.566Z,33.23
2018-10-09T03:09:37.136Z,31.67
2018-10-09T03:12:05.426Z,32.30
2018-10-09T03:14:33.803Z,34.10
2018-10-09T03:17:02.757Z,31.83
2018-10-09T03:19:31.580Z,32.33
2018-10-09T03:22:00.537Z,31.83
2018-10-09T03:24:29.524Z,32.97
2018-10-09T03:26:57.810Z,33.03
2018-10-09T03:29:26.597Z,34.83
2018-10-09T03:31:55.286Z,31.60
2018-10-09T03:34:23.597Z,29.87
2018-10-09T03:36:51.912Z,35.33
2018-10-09T03:39:20.234Z,31.53
2018-10-09T03:41:48.523Z,32.83
2018-10-09T03:44:16.884Z,30.87
2018-10-09T03:46:45.203Z,29.17
2018-10-09T03:49:13.473Z,27.50
2018-10-09T03:51:42.562Z,28.53
2018-10-09T03:54:10.838Z,29.63
2018-10-09T03:56:39.118Z,34.70
2018-10-09T03:59:07.450Z,30.03
2018-10-09T04:01:35.753Z,28.80
2018-10-09T04:04:04.421Z,30.40
2018-10-09T04:06:32.718Z,27.43
2018-10-09T04:09:01.625Z,30.23
2018-10-09T04:11:29.903Z,29.53
2018-10-09T04:13:58.174Z,29.97
2018-10-09T04:16:26.942Z,30.10
2018-10-09T04:18:55.677Z,33.13
2018-10-09T04:21:23.938Z,29.73
2018-10-09T04:23:52.193Z,32.47
2018-10-09T04:26:20.618Z,31.97
2018-10-09T04:28:49.357Z,34.47
2018-10-09T04:31:17.641Z,33.97
2018-10-09T04:33:45.920Z,30.93
2018-10-09T04:36:14.202Z,30.03
2018-10-09T04:38:42.493Z,30.07
2018-10-09T04:41:10.874Z,31.77
2018-10-09T04:43:39.190Z,29.83
2018-10-09T04:46:07.490Z,29.67
2018-10-09T04:48:35.759Z,26.27
2018-10-09T04:51:04.749Z,26.77
2018-10-09T04:53:33.026Z,28.50
2018-10-09T04:56:01.424Z,29.03
2018-10-09T04:58:29.869Z,33.73
2018-10-09T05:00:58.142Z,29.03
2018-10-09T05:03:26.687Z,29.50
2018-10-09T05:05:54.947Z,30.27
2018-10-09T05:08:23.789Z,30.07
2018-10-09T05:10:52.970Z,25.73
2018-10-09T05:13:21.300Z,28.23
2018-10-09T05:15:50.138Z,26.43
2018-10-09T05:18:18.445Z,28.57
2018-10-09T05:20:46.730Z,29.30
2018-10-09T05:23:15.110Z,26.47
2018-10-09T05:25:43.373Z,27.43
2018-10-09T05:28:12.498Z,27.60
2018-10-09T05:30:40.796Z,27.87
2018-10-09T05:33:09.066Z,31.23
2018-10-09T05:35:37.358Z,28.00
2018-10-09T05:38:05.638Z,30.67
2018-10-09T05:40:34.024Z,26.30
2018-10-09T05:43:02.377Z,26.67
2018-10-09T05:45:31.287Z,25.70
2018-10-09T05:47:59.567Z,25.27
2018-10-09T05:50:27.808Z,27.27
2018-10-09T05:52:57.073Z,24.97
2018-10-09T05:55:25.374Z,24.47
2018-10-09T05:57:53.698Z,25.07
2018-10-09T06:00:22.130Z,24.27
2018-10-09T06:02:51.076Z,26.73
2018-10-09T06:05:19.607Z,25.60
2018-10-09T06:07:48.374Z,26.23
2018-10-09T06:10:17.235Z,25.03
2018-10-09T06:12:45.530Z,24.30
2018-10-09T06:15:13.793Z,25.30
2018-10-09T06:17:42.442Z,26.07
2018-10-09T06:20:10.714Z,23.73
2018-10-09T06:22:39.062Z,24.27
2018-10-09T06:25:07.493Z,23.77
2018-10-09T06:27:36.290Z,23.60
2018-10-09T06:30:04.745Z,23.90
2018-10-09T06:32:33.095Z,23.63
2018-10-09T06:35:02.190Z,23.13
2018-10-09T06:37:30.497Z,27.37
2018-10-09T06:39:58.817Z,26.47
2018-10-09T06:42:27.167Z,22.50
2018-10-09T06:44:55.449Z,22.23
2018-10-09T06:47:23.622Z,23.87
2018-10-09T06:49:51.681Z,25.73
2018-10-09T06:52:20.041Z,24.97
2018-10-09T06:54:48.139Z,26.17
2018-10-09T06:57:17.159Z,26.13
2018-10-09T06:59:45.244Z,22.63
2018-10-09T07:02:13.892Z,25.07
2018-10-09T07:04:42.512Z,22.00
2018-10-09T07:07:12.273Z,23.67
2018-10-09T07:09:40.325Z,25.67
2018-10-09T07:12:08.398Z,25.70
2018-10-09T07:14:36.634Z,22.77
2018-10-09T07:17:05.467Z,23.10
2018-10-09T07:19:33.513Z,24.87
2018-10-09T07:22:01.821Z,25.20
2018-10-09T07:24:30.118Z,26.80
2018-10-09T07:26:58.420Z,24.23
2018-10-09T07:29:27.231Z,24.17
2018-10-09T07:31:55.499Z,22.50
2018-10-09T07:34:24.298Z,26.03
2018-10-09T07:36:52.574Z,24.73
2018-10-09T07:39:20.831Z,24.20
2018-10-09T07:41:49.162Z,27.27
2018-10-09T07:44:17.546Z,26.37
2018-10-09T07:46:45.818Z,25.60
2018-10-09T07:49:14.126Z,27.60
2018-10-09T07:51:43.205Z,30.57
2018-10-09T07:54:12.386Z,33.87
2018-10-09T07:56:41.544Z,27.77
2018-10-09T07:59:09.822Z,39.23
2018-10-09T08:01:38.142Z,39.57
2018-10-09T08:04:07.470Z,35.87
2018-10-09T08:06:35.754Z,33.33
2018-10-09T08:09:05.486Z,31.27
2018-10-09T08:11:33.773Z,30.10
2018-10-09T08:14:02.018Z,29.13
2018-10-09T08:16:30.786Z,33.87
2018-10-09T08:18:59.033Z,29.57
2018-10-09T08:21:28.028Z,30.43
2018-10-09T08:23:56.307Z,32.07
2018-10-09T08:26:24.616Z,34.43
2018-10-09T08:28:53.362Z,29.13
2018-10-09T08:31:21.630Z,36.37
2018-10-09T08:33:49.936Z,34.67
2018-10-09T08:36:18.230Z,33.67
2018-10-09T08:38:46.546Z,39.88
2018-10-09T08:41:15.011Z,36.67
2018-10-09T08:43:44.130Z,34.77
2018-10-09T08:46:12.470Z,32.10
2018-10-09T08:48:41.874Z,31.03
2018-10-09T08:51:10.906Z,39.67
2018-10-09T08:53:39.824Z,33.53
2018-10-09T08:56:08.190Z,32.53
2018-10-09T08:58:36.626Z,40.77
2018-10-09T09:01:05.399Z,38.23
2018-10-09T09:03:34.467Z,37.97
2018-10-09T09:06:02.769Z,40.97
2018-10-09T09:08:31.432Z,40.57
2018-10-09T09:10:59.722Z,37.37
2018-10-09T09:13:28.074Z,42.73
2018-10-09T09:15:56.665Z,46.27
2018-10-09T09:18:25.699Z,40.33
2018-10-09T09:20:54.036Z,36.80
2018-10-09T09:23:22.349Z,39.30
2018-10-09T09:25:50.714Z,37.47
2018-10-09T09:28:19.675Z,41.30
2018-10-09T09:30:47.973Z,39.97
2018-10-09T09:33:16.282Z,35.57
2018-10-09T09:35:44.581Z,43.50
2018-10-09T09:38:12.999Z,46.47
2018-10-09T09:40:41.914Z,42.15
2018-10-09T09:43:10.205Z,49.40
2018-10-09T09:45:38.516Z,44.47
2018-10-09T09:48:06.978Z,48.00
2018-10-09T09:50:35.357Z,39.93
2018-10-09T09:53:04.282Z,42.40
2018-10-09T09:55:32.590Z,45.97
2018-10-09T09:58:01.022Z,40.53
2018-10-09T10:00:34.461Z,43.30
2018-10-09T10:03:03.581Z,48.58
2018-10-09T10:05:32.186Z,42.03
2018-10-09T10:08:01.482Z,43.63
2018-10-09T10:10:29.766Z,48.17
2018-10-09T10:12:58.087Z,49.50
2018-10-09T10:15:27.395Z,42.30
2018-10-09T10:17:55.713Z,44.08
2018-10-09T10:20:24.150Z,40.23
2018-10-09T10:22:53.033Z,43.58
2018-10-09T10:25:21.483Z,45.75
2018-10-09T10:27:50.478Z,42.83
2018-10-09T10:30:18.810Z,116.22
2018-10-09T10:32:47.714Z,46.28
2018-10-09T10:35:15.969Z,45.55
2018-10-09T10:37:44.792Z,45.58
2018-10-09T10:40:13.094Z,41.90
2018-10-09T10:42:41.390Z,41.88
2018-10-09T10:45:09.680Z,45.65
2018-10-09T10:47:37.951Z,44.80
2018-10-09T10:50:06.404Z,44.75
2018-10-09T10:52:35.006Z,38.30
2018-10-09T10:55:03.314Z,40.88
2018-10-09T10:57:31.582Z,39.00
2018-10-09T10:59:59.858Z,35.98
2018-10-09T11:02:28.484Z,39.80
2018-10-09T11:04:57.656Z,38.80
2018-10-09T11:07:26.658Z,39.00
2018-10-09T11:09:54.955Z,40.00
2018-10-09T11:12:23.260Z,40.92
2018-10-09T11:14:51.589Z,40.15
2018-10-09T11:17:20.450Z,119.37
2018-10-09T11:19:48.718Z,46.80
2018-10-09T11:22:16.983Z,65.42
2018-10-09T11:24:45.950Z,43.52
2018-10-09T11:27:14.447Z,65.22
2018-10-09T11:29:42.715Z,41.13
2018-10-09T11:32:11.002Z,39.33
2018-10-09T11:34:39.386Z,32.67
2018-10-09T11:37:07.676Z,37.40
2018-10-09T11:39:36.034Z,34.55
2018-10-09T11:42:04.379Z,33.90
2018-10-09T11:44:32.598Z,36.85
2018-10-09T11:47:00.874Z,40.00
2018-10-09T11:49:29.170Z,35.33
2018-10-09T11:51:58.027Z,32.70
2018-10-09T11:54:26.876Z,31.27
2018-10-09T11:56:55.163Z,30.95
2018-10-09T11:59:23.472Z,35.17
2018-10-09T12:01:52.645Z,30.75
2018-10-09T12:04:21.182Z,32.17
2018-10-09T12:06:49.652Z,32.93
2018-10-09T12:09:18.843Z,30.30
2018-10-09T12:11:47.116Z,32.13
2018-10-09T12:14:15.396Z,29.80
2018-10-09T12:16:44.180Z,34.88
2018-10-09T12:19:12.995Z,28.87
2018-10-09T12:21:41.306Z,28.45
2018-10-09T12:24:09.596Z,32.20
2018-10-09T12:26:37.894Z,34.10
2018-10-09T12:29:06.588Z,27.98
2018-10-09T12:31:34.867Z,29.48
2018-10-09T12:34:03.120Z,31.40
2018-10-09T12:36:32.581Z,28.77
2018-10-09T12:39:00.811Z,26.73
2018-10-09T12:41:29.170Z,27.48
2018-10-09T12:43:57.513Z,29.12
2018-10-09T12:46:26.081Z,26.60
2018-10-09T12:48:54.342Z,28.45
2018-10-09T12:51:22.589Z,28.15
2018-10-09T12:53:51.655Z,25.85
2018-10-09T12:56:19.905Z,25.95
2018-10-09T12:58:48.187Z,27.85
2018-10-09T13:01:16.490Z,25.08
2018-10-09T13:03:45.175Z,25.37
2018-10-09T13:08:35.990Z,23.87
2018-10-09T13:11:04.290Z,24.80
2018-10-09T13:13:32.532Z,25.25
2018-10-09T13:16:01.701Z,24.65
2018-10-09T13:18:30.054Z,22.35
2018-10-09T13:20:58.353Z,22.27
2018-10-09T13:23:26.634Z,22.35
2018-10-09T13:25:54.930Z,24.37
2018-10-09T13:28:23.656Z,26.82
2018-10-09T13:30:51.962Z,22.48
2018-10-09T13:33:20.216Z,22.17
2018-10-09T13:35:48.971Z,25.70
2018-10-09T13:38:17.299Z,24.87
2018-10-09T13:40:45.577Z,23.77
2018-10-09T13:43:13.878Z,21.90
2018-10-09T13:45:42.146Z,21.00
2018-10-09T13:48:10.810Z,21.55
2018-10-09T13:50:39.116Z,21.55
2018-10-09T13:53:07.427Z,20.37
2018-10-09T13:55:35.741Z,19.40
2018-10-09T13:58:04.062Z,19.50
2018-10-09T14:00:33.073Z,20.60
2018-10-09T14:03:01.962Z,20.45
2018-10-09T14:05:30.203Z,18.77
2018-10-09T14:07:58.887Z,19.85
2018-10-09T14:10:27.152Z,18.67
2018-10-09T14:12:55.493Z,19.70
2018-10-09T14:15:24.404Z,18.32
2018-10-09T14:17:52.682Z,19.52
2018-10-09T14:20:21.043Z,18.35
2018-10-09T14:22:49.505Z,18.17
2018-10-09T14:25:17.621Z,19.45
2018-10-09T14:27:46.370Z,18.20
2018-10-09T14:30:14.769Z,16.87
2018-10-09T14:32:43.035Z,19.30
2018-10-09T14:35:11.935Z,19.65
2018-10-09T14:37:40.191Z,18.98
2018-10-09T14:40:08.462Z,18.62
2018-10-09T14:42:36.783Z,17.70
2018-10-09T14:45:05.288Z,17.05
2018-10-09T14:47:33.619Z,17.15
2018-10-09T14:50:01.913Z,17.35
2018-10-09T14:52:30.216Z,17.67
2018-10-09T14:54:59.110Z,18.77
2018-10-09T14:57:27.400Z,16.07
2018-10-09T14:59:55.647Z,16.62
2018-10-09T15:02:24.236Z,17.27
2018-10-09T15:04:52.540Z,16.87
2018-10-09T15:07:21.374Z,17.20
2018-10-09T15:09:49.649Z,16.52
2018-10-09T15:12:17.946Z,16.07
2018-10-09T15:14:46.296Z,16.30
2018-10-09T15:17:15.227Z,16.10
2018-10-09T15:19:43.642Z,15.70
2018-10-09T15:22:12.434Z,14.60
2018-10-09T15:24:40.705Z,14.90
2018-10-09T15:27:09.494Z,16.50
2018-10-09T15:29:37.750Z,14.50
2018-10-09T15:32:06.076Z,15.75
2018-10-09T15:34:34.562Z,14.70
2018-10-09T15:37:02.824Z,16.05
2018-10-09T15:39:31.097Z,14.23
2018-10-09T15:41:59.932Z,13.15
2018-10-09T15:44:28.289Z,13.38
2018-10-09T15:46:57.750Z,13.00
2018-10-09T15:49:26.095Z,13.78
2018-10-09T15:51:54.404Z,14.58
2018-10-09T15:54:22.722Z,14.70
2018-10-09T15:56:51.042Z,15.00
2018-10-09T15:59:19.518Z,14.63
2018-10-09T16:01:48.543Z,15.88
2018-10-09T16:04:18.363Z,15.85
2018-10-09T16:06:46.513Z,14.53
2018-10-09T16:09:15.284Z,15.32
2018-10-09T16:11:43.635Z,16.07
2018-10-09T16:14:11.935Z,16.42
2018-10-09T16:16:40.797Z,16.25
2018-10-09T16:19:09.501Z,16.70
2018-10-09T16:21:38.073Z,16.12
2018-10-09T16:24:06.400Z,18.25
2018-10-09T16:26:34.726Z,19.12
2018-10-09T16:29:03.617Z,17.70
2018-10-09T16:31:32.398Z,16.87
2018-10-09T16:34:01.144Z,16.85
2018-10-09T16:36:29.464Z,17.52
2018-10-09T16:38:58.044Z,17.55
2018-10-09T16:41:26.754Z,18.35
2018-10-09T16:43:55.374Z,17.62
2018-10-09T16:46:23.683Z,17.82
2018-10-09T16:48:52.029Z,19.12
2018-10-09T16:51:20.307Z,17.10
2018-10-09T16:53:48.574Z,18.52
2018-10-09T16:56:16.966Z,17.85
2018-10-09T16:58:45.254Z,18.25
2018-10-09T17:01:13.568Z,18.40
2018-10-09T17:03:42.084Z,17.55
2018-10-09T17:06:10.371Z,18.57
2018-10-09T17:08:39.258Z,18.70
2018-10-09T17:11:08.283Z,18.50
2018-10-09T17:13:36.635Z,17.45
2018-10-09T17:16:05.288Z,18.00
2018-10-09T17:18:33.593Z,18.42
2018-10-09T17:21:01.916Z,20.25
2018-10-09T17:23:30.376Z,17.92
2018-10-09T17:25:58.678Z,19.25
2018-10-09T17:28:27.203Z,18.80
2018-10-09T17:30:55.750Z,17.92
2018-10-09T17:33:24.610Z,21.45
2018-10-09T17:35:53.278Z,20.35
2018-10-09T17:38:21.548Z,20.20
2018-10-09T17:40:49.843Z,20.02
2018-10-09T17:43:18.427Z,20.23
2018-10-09T17:45:46.675Z,20.35
2018-10-09T17:48:14.944Z,20.27
2018-10-09T17:50:43.222Z,20.02
2018-10-09T17:53:11.511Z,21.87
2018-10-09T17:55:39.839Z,20.23
2018-10-09T17:58:08.103Z,21.05
2018-10-09T18:00:36.375Z,20.72
2018-10-09T18:03:05.149Z,21.12
2018-10-09T18:05:33.382Z,21.48
2018-10-09T18:08:02.107Z,21.40
2018-10-09T18:10:30.346Z,21.02
2018-10-09T18:12:58.642Z,21.62
2018-10-09T18:15:27.386Z,22.25
2018-10-09T18:17:55.970Z,20.80
2018-10-09T18:20:24.862Z,22.50
2018-10-09T18:22:53.052Z,20.72
2018-10-09T18:25:21.350Z,22.48
2018-10-09T18:27:50.404Z,22.17
2018-10-09T18:30:18.698Z,20.05
2018-10-09T18:32:47.618Z,21.67
2018-10-09T18:35:16.190Z,22.42
2018-10-09T18:37:44.970Z,22.27
2018-10-09T18:40:13.254Z,21.85
2018-10-09T18:42:42.027Z,23.73
2018-10-09T18:45:10.348Z,22.80
2018-10-09T18:47:43.487Z,23.87
2018-10-09T18:50:12.582Z,22.30
2018-10-09T18:52:41.378Z,22.42
2018-10-09T18:55:11.333Z,23.45
2018-10-09T18:57:39.630Z,23.90
2018-10-09T19:00:08.636Z,24.70
2018-10-09T19:02:37.771Z,23.43
2018-10-09T19:05:06.758Z,22.77
2018-10-09T19:07:35.486Z,22.22
2018-10-09T19:10:04.226Z,22.55
2018-10-09T19:12:32.485Z,23.37
2018-10-09T19:15:01.832Z,26.77
2018-10-09T19:17:30.461Z,22.90
2018-10-09T19:19:58.956Z,23.80
2018-10-09T19:22:27.238Z,24.10
2018-10-09T19:24:55.673Z,24.03
2018-10-09T19:27:24.180Z,23.27
2018-10-09T19:29:52.482Z,25.80
2018-10-09T19:32:21.127Z,24.57
2018-10-09T19:34:50.113Z,25.20
2018-10-09T19:37:18.404Z,23.63
2018-10-09T19:39:47.839Z,25.40
2018-10-09T19:42:16.545Z,25.85
2018-10-09T19:44:45.422Z,24.30
2018-10-09T19:47:14.082Z,24.67
2018-10-09T19:49:43.249Z,29.27
2018-10-09T19:52:11.535Z,25.07
2018-10-09T19:54:40.394Z,26.35
2018-10-09T19:57:09.141Z,25.48
2018-10-09T19:59:37.416Z,24.02
2018-10-09T20:02:07.937Z,26.30
2018-10-09T20:04:36.446Z,25.40
2018-10-09T20:07:04.706Z,25.65
2018-10-09T20:09:33.253Z,26.97
2018-10-09T20:12:01.561Z,25.83
2018-10-09T20:14:30.428Z,26.37
2018-10-09T20:16:59.233Z,25.72
2018-10-09T20:19:27.512Z,27.05
2018-10-09T20:21:55.790Z,25.63
2018-10-09T20:24:24.108Z,25.77
2018-10-09T20:26:52.399Z,24.95
2018-10-09T20:29:21.068Z,25.73
2018-10-09T20:31:49.722Z,25.27
2018-10-09T20:34:18.401Z,25.02
2018-10-09T20:36:47.086Z,26.85
2018-10-09T20:39:15.411Z,25.37
2018-10-09T20:41:44.139Z,26.87
2018-10-09T20:44:12.442Z,26.68
2018-10-09T20:46:40.718Z,25.35
2018-10-09T20:49:09.107Z,24.77
2018-10-09T20:51:37.777Z,25.85
2018-10-09T20:54:06.126Z,23.67
2018-10-09T20:56:34.419Z,24.57
2018-10-09T20:59:02.942Z,25.00
2018-10-09T21:01:31.193Z,25.00
2018-10-09T21:03:59.757Z,24.70
2018-10-09T21:06:28.422Z,23.50
2018-10-09T21:08:57.947Z,24.95
2018-10-09T21:11:26.234Z,24.37
2018-10-09T21:13:54.538Z,24.67
2018-10-09T21:16:23.154Z,22.93
2018-10-09T21:18:51.973Z,24.00
2018-10-09T21:21:20.274Z,23.85
2018-10-09T21:23:48.563Z,24.00
2018-10-09T21:26:17.338Z,24.67
2018-10-09T21:28:46.090Z,23.13
2018-10-09T21:31:14.898Z,22.90
2018-10-09T21:33:43.174Z,23.47
2018-10-09T21:36:11.726Z,25.43
2018-10-09T21:38:40.484Z,26.82
2018-10-09T21:41:08.821Z,27.80
2018-10-09T21:43:37.233Z,24.17
2018-10-09T21:46:05.593Z,27.03
2018-10-09T21:48:33.905Z,28.03
2018-10-09T21:51:02.274Z,25.27
2018-10-09T21:53:30.690Z,25.03
2018-10-09T21:55:58.973Z,25.07
2018-10-09T21:58:27.665Z,26.30
2018-10-09T22:01:01.735Z,24.37
2018-10-09T22:03:30.441Z,25.10
2018-10-09T22:05:58.721Z,23.70
2018-10-09T22:10:49.289Z,23.90
2018-10-09T22:13:18.366Z,26.20
2018-10-09T22:15:47.177Z,26.37
2018-10-09T22:18:15.494Z,24.53
2018-10-09T22:20:43.784Z,24.23
2018-10-09T22:23:12.271Z,24.70
2018-10-09T22:25:40.682Z,24.47
2018-10-09T22:28:10.137Z,28.57
2018-10-09T22:30:38.796Z,24.13
2018-10-09T22:33:07.535Z,24.00
2018-10-09T22:35:36.408Z,25.63
2018-10-09T22:38:05.296Z,24.10
2018-10-09T22:40:33.690Z,26.37
2018-10-09T22:43:03.029Z,24.57
2018-10-09T22:45:31.645Z,25.40
2018-10-09T22:48:00.148Z,24.43
2018-10-09T22:50:29.052Z,24.87
2018-10-09T22:52:57.636Z,25.83
2018-10-09T22:55:25.934Z,24.77
2018-10-09T23:00:27.049Z,24.00
2018-10-09T23:02:55.633Z,23.77
2018-10-09T23:05:24.332Z,23.67
2018-10-09T23:07:53.590Z,25.97
2018-10-09T23:10:21.907Z,23.57
2018-10-09T23:12:50.245Z,27.33
2018-10-09T23:15:18.550Z,25.10
2018-10-09T23:17:47.153Z,26.17
2018-10-09T23:20:15.635Z,25.40
2018-10-09T23:22:43.911Z,25.87
2018-10-09T23:25:12.898Z,27.33
2018-10-09T23:27:41.635Z,24.57
2018-10-09T23:30:10.434Z,24.63
2018-10-09T23:32:39.123Z,25.20
2018-10-09T23:35:07.747Z,25.03
2018-10-09T23:37:36.487Z,23.77
2018-10-09T23:40:04.798Z,24.73
2018-10-09T23:42:33.397Z,25.97
2018-10-09T23:45:02.054Z,24.60
2018-10-09T23:47:30.326Z,26.40
2018-10-09T23:49:58.651Z,25.50
2018-10-09T23:52:27.096Z,25.90
2018-10-09T23:54:55.394Z,25.00
2018-10-09T23:57:24.687Z,25.80
2018-10-09T23:59:53.271Z,27.57
